sensor_id;sensor_type;location;lat;lon;timestamp;pressure;altitude;pressure_sealevel;temperature;humidity
48553;BME280;34335;51.566;6.994;2023-02-21T00:00:51;101477.03;;;7.04;100.00
48553;BME280;34335;51.566;6.994;2023-02-21T00:03:35;101465.91;;;7.06;100.00
48553;BME280;34335;51.566;6.994;2023-02-21T00:06:18;101477.09;;;7.05;100.00
48553;BME280;34335;51.566;6.994;2023-02-21T00:09:02;101465.00;;;7.04;100.00
48553;BME280;34335;51.566;6.994;2023-02-21T00:11:46;101463.25;;;7.03;100.00
48553;BME280;34335;51.566;6.994;2023-02-21T00:14:30;101470.09;;;7.01;100.00
48553;BME280;34335;51.566;6.994;2023-02-21T00:17:14;101459.75;;;7.02;100.00
48553;BME280;34335;51.566;6.994;2023-02-21T00:19:59;101465.84;;;7.05;100.00
48553;BME280;34335;51.566;6.994;2023-02-21T00:22:44;101468.38;;;7.01;100.00
48553;BME280;34335;51.566;6.994;2023-02-21T00:25:28;101461.63;;;7.08;100.00
48553;BME280;34335;51.566;6.994;2023-02-21T00:28:11;101465.94;;;7.08;100.00
48553;BME280;34335;51.566;6.994;2023-02-21T00:30:55;101476.19;;;7.03;100.00
48553;BME280;34335;51.566;6.994;2023-02-21T00:33:39;101469.28;;;7.04;100.00
48553;BME280;34335;51.566;6.994;2023-02-21T00:36:22;101468.41;;;7.03;100.00
48553;BME280;34335;51.566;6.994;2023-02-21T00:39:06;101469.38;;;7.07;100.00
48553;BME280;34335;51.566;6.994;2023-02-21T00:41:50;101474.50;;;7.05;100.00
48553;BME280;34335;51.566;6.994;2023-02-21T00:44:34;101477.16;;;7.08;100.00
48553;BME280;34335;51.566;6.994;2023-02-21T00:47:18;101472.75;;;7.04;100.00
48553;BME280;34335;51.566;6.994;2023-02-21T00:50:01;101464.16;;;7.05;100.00
48553;BME280;34335;51.566;6.994;2023-02-21T00:52:45;101465.00;;;7.04;100.00
48553;BME280;34335;51.566;6.994;2023-02-21T00:55:29;101464.19;;;7.07;100.00
48553;BME280;34335;51.566;6.994;2023-02-21T00:58:13;101456.34;;;7.04;100.00
48553;BME280;34335;51.566;6.994;2023-02-21T01:00:56;101458.94;;;7.04;100.00
48553;BME280;34335;51.566;6.994;2023-02-21T01:03:40;101455.50;;;7.05;100.00
48553;BME280;34335;51.566;6.994;2023-02-21T01:06:24;101447.88;;;7.09;100.00
48553;BME280;34335;51.566;6.994;2023-02-21T01:09:08;101447.84;;;7.08;100.00
48553;BME280;34335;51.566;6.994;2023-02-21T01:11:52;101444.31;;;7.04;100.00
48553;BME280;34335;51.566;6.994;2023-02-21T01:14:36;101444.22;;;7.01;100.00
48553;BME280;34335;51.566;6.994;2023-02-21T01:17:19;101444.22;;;7.01;100.00
48553;BME280;34335;51.566;6.994;2023-02-21T01:20:04;101443.38;;;7.02;100.00
48553;BME280;34335;51.566;6.994;2023-02-21T01:22:48;101445.06;;;7.00;100.00
48553;BME280;34335;51.566;6.994;2023-02-21T01:25:31;101446.81;;;7.01;100.00
48553;BME280;34335;51.566;6.994;2023-02-21T01:28:15;101448.56;;;7.02;100.00
48553;BME280;34335;51.566;6.994;2023-02-21T01:30:59;101445.09;;;7.01;100.00
48553;BME280;34335;51.566;6.994;2023-02-21T01:33:43;101432.06;;;6.97;100.00
48553;BME280;34335;51.566;6.994;2023-02-21T01:36:27;101435.53;;;6.99;100.00
48553;BME280;34335;51.566;6.994;2023-02-21T01:39:10;101436.25;;;6.93;100.00
48553;BME280;34335;51.566;6.994;2023-02-21T01:41:54;101434.59;;;6.95;100.00
48553;BME280;34335;51.566;6.994;2023-02-21T01:44:41;101432.84;;;6.94;100.00
48553;BME280;34335;51.566;6.994;2023-02-21T01:47:26;101432.00;;;6.95;100.00
48553;BME280;34335;51.566;6.994;2023-02-21T01:50:30;101433.72;;;6.95;100.00
48553;BME280;34335;51.566;6.994;2023-02-21T01:53:23;101430.22;;;6.93;100.00
48553;BME280;34335;51.566;6.994;2023-02-21T01:56:09;101435.38;;;6.91;100.00
48553;BME280;34335;51.566;6.994;2023-02-21T01:58:56;101429.28;;;6.89;100.00
48553;BME280;34335;51.566;6.994;2023-02-21T02:01:46;101431.88;;;6.91;100.00
48553;BME280;34335;51.566;6.994;2023-02-21T02:04:33;101435.47;;;6.96;100.00
48553;BME280;34335;51.566;6.994;2023-02-21T02:07:17;101425.97;;;6.95;100.00
48553;BME280;34335;51.566;6.994;2023-02-21T02:10:01;101434.66;;;6.97;100.00
48553;BME280;34335;51.566;6.994;2023-02-21T02:13:09;101432.84;;;6.94;100.00
48553;BME280;34335;51.566;6.994;2023-02-21T02:16:31;101432.00;;;6.95;100.00
48553;BME280;34335;51.566;6.994;2023-02-21T02:21:19;101432.78;;;6.91;100.00
48553;BME280;34335;51.566;6.994;2023-02-21T02:26:49;101427.63;;;6.93;100.00
48553;BME280;34335;51.566;6.994;2023-02-21T02:35:43;101416.38;;;6.91;100.00
48553;BME280;34335;51.566;6.994;2023-02-21T02:38:20;101414.78;;;6.96;100.00
48553;BME280;34335;51.566;6.994;2023-02-21T02:40:58;101413.75;;;6.89;100.00
48553;BME280;34335;51.566;6.994;2023-02-21T02:43:31;101409.28;;;6.83;100.00
48553;BME280;34335;51.566;6.994;2023-02-21T02:46:10;101412.84;;;6.87;100.00
48553;BME280;34335;51.566;6.994;2023-02-21T02:52:05;101415.38;;;6.85;100.00
48553;BME280;34335;51.566;6.994;2023-02-21T02:54:30;101414.59;;;6.88;100.00
48553;BME280;34335;51.566;6.994;2023-02-21T05:14:42;101401.53;;;6.50;100.00
48553;BME280;34335;51.566;6.994;2023-02-21T05:17:08;101396.38;;;6.50;100.00
48553;BME280;34335;51.566;6.994;2023-02-21T05:19:33;101404.16;;;6.51;100.00
48553;BME280;34335;51.566;6.994;2023-02-21T05:22:01;101405.81;;;6.49;100.00
48553;BME280;34335;51.566;6.994;2023-02-21T05:24:28;101405.88;;;6.51;100.00
48553;BME280;34335;51.566;6.994;2023-02-21T05:26:55;101405.81;;;6.49;100.00
48553;BME280;34335;51.566;6.994;2023-02-21T05:29:20;101404.97;;;6.50;100.00
48553;BME280;34335;51.566;6.994;2023-02-21T05:31:46;101404.84;;;6.46;100.00
48553;BME280;34335;51.566;6.994;2023-02-21T05:34:11;101398.16;;;6.52;100.00
48553;BME280;34335;51.566;6.994;2023-02-21T05:36:37;101419.59;;;6.48;100.00
48553;BME280;34335;51.566;6.994;2023-02-21T05:39:03;101404.09;;;6.48;100.00
48553;BME280;34335;51.566;6.994;2023-02-21T05:41:29;101407.63;;;6.52;100.00
48553;BME280;34335;51.566;6.994;2023-02-21T05:43:54;101404.13;;;6.50;100.00
48553;BME280;34335;51.566;6.994;2023-02-21T05:46:23;101404.91;;;6.47;100.00
48553;BME280;34335;51.566;6.994;2023-02-21T05:48:49;101411.84;;;6.48;100.00
48553;BME280;34335;51.566;6.994;2023-02-21T05:51:14;101408.38;;;6.49;100.00
48553;BME280;34335;51.566;6.994;2023-02-21T05:53:40;101406.66;;;6.48;100.00
48553;BME280;34335;51.566;6.994;2023-02-21T05:56:06;101416.09;;;6.46;100.00
48553;BME280;34335;51.566;6.994;2023-02-21T05:58:31;101409.25;;;6.48;100.00
48553;BME280;34335;51.566;6.994;2023-02-21T06:00:56;101411.75;;;6.45;100.00
48553;BME280;34335;51.566;6.994;2023-02-21T06:03:21;101408.38;;;6.49;100.00
48553;BME280;34335;51.566;6.994;2023-02-21T06:05:47;101403.91;;;6.42;100.00
48553;BME280;34335;51.566;6.994;2023-02-21T06:08:12;101402.09;;;6.38;100.00
48553;BME280;34335;51.566;6.994;2023-02-21T06:10:37;101402.13;;;6.39;100.00
48553;BME280;34335;51.566;6.994;2023-02-21T06:13:02;101402.00;;;6.36;100.00
48553;BME280;34335;51.566;6.994;2023-02-21T06:15:28;101407.19;;;6.36;100.00
48553;BME280;34335;51.566;6.994;2023-02-21T06:17:53;101405.56;;;6.40;100.00
48553;BME280;34335;51.566;6.994;2023-02-21T06:20:18;101397.69;;;6.35;100.00
48553;BME280;34335;51.566;6.994;2023-02-21T06:22:44;101395.97;;;6.34;100.00
48553;BME280;34335;51.566;6.994;2023-02-21T06:25:09;101395.22;;;6.40;100.00
48553;BME280;34335;51.566;6.994;2023-02-21T06:27:35;101396.81;;;6.35;100.00
48553;BME280;34335;51.566;6.994;2023-02-21T06:30:01;101396.69;;;6.30;100.00
48553;BME280;34335;51.566;6.994;2023-02-21T06:32:27;101393.16;;;6.27;100.00
48553;BME280;34335;51.566;6.994;2023-02-21T06:34:53;101396.81;;;6.35;100.00
48553;BME280;34335;51.566;6.994;2023-02-21T06:37:19;101394.13;;;6.32;100.00
48553;BME280;34335;51.566;6.994;2023-02-21T06:39:44;101399.16;;;6.26;100.00
48553;BME280;34335;51.566;6.994;2023-02-21T06:42:12;101399.19;;;6.27;100.00
48553;BME280;34335;51.566;6.994;2023-02-21T06:44:38;101402.66;;;6.28;100.00
48553;BME280;34335;51.566;6.994;2023-02-21T06:47:03;101401.72;;;6.26;100.00
48553;BME280;34335;51.566;6.994;2023-02-21T06:49:29;101392.84;;;6.16;100.00
48553;BME280;34335;51.566;6.994;2023-02-21T06:51:54;101405.75;;;6.16;100.00
48553;BME280;34335;51.566;6.994;2023-02-21T06:54:19;101391.94;;;6.14;100.00
48553;BME280;34335;51.566;6.994;2023-02-21T06:56:46;101397.84;;;6.10;100.00
48553;BME280;34335;51.566;6.994;2023-02-21T06:59:11;101401.25;;;6.08;100.00
48553;BME280;34335;51.566;6.994;2023-02-21T07:01:36;101407.31;;;6.09;100.00
48553;BME280;34335;51.566;6.994;2023-02-21T07:04:02;101406.41;;;6.08;100.00
48553;BME280;34335;51.566;6.994;2023-02-21T07:06:27;101409.06;;;6.10;100.00
48553;BME280;34335;51.566;6.994;2023-02-21T07:08:53;101416.84;;;6.12;100.00
48553;BME280;34335;51.566;6.994;2023-02-21T07:11:18;101415.78;;;6.05;100.00
48553;BME280;34335;51.566;6.994;2023-02-21T07:13:50;101417.63;;;6.09;100.00
48553;BME280;34335;51.566;6.994;2023-02-21T07:16:16;101411.53;;;6.07;100.00
48553;BME280;34335;51.566;6.994;2023-02-21T07:18:43;101415.94;;;6.11;100.00
48553;BME280;34335;51.566;6.994;2023-02-21T07:21:09;101408.16;;;6.10;100.00
48553;BME280;34335;51.566;6.994;2023-02-21T07:23:34;101408.00;;;6.03;100.00
48553;BME280;34335;51.566;6.994;2023-02-21T07:26:00;101403.09;;;6.13;100.00
48553;BME280;34335;51.566;6.994;2023-02-21T07:28:25;101408.31;;;6.16;100.00
48553;BME280;34335;51.566;6.994;2023-02-21T07:30:50;101409.94;;;6.12;100.00
48553;BME280;34335;51.566;6.994;2023-02-21T07:33:15;101404.72;;;6.09;100.00
48553;BME280;34335;51.566;6.994;2023-02-21T07:35:41;101403.97;;;6.13;100.00
48553;BME280;34335;51.566;6.994;2023-02-21T07:38:06;101410.84;;;6.13;100.00
48553;BME280;34335;51.566;6.994;2023-02-21T07:40:31;101411.56;;;6.08;100.00
48553;BME280;34335;51.566;6.994;2023-02-21T07:42:57;101417.81;;;6.15;100.00
48553;BME280;34335;51.566;6.994;2023-02-21T07:45:22;101410.84;;;6.13;100.00
48553;BME280;34335;51.566;6.994;2023-02-21T07:47:47;101418.53;;;6.11;100.00
48553;BME280;34335;51.566;6.994;2023-02-21T07:50:15;101416.94;;;6.15;100.00
48553;BME280;34335;51.566;6.994;2023-02-21T07:52:40;101420.47;;;6.18;100.00
48553;BME280;34335;51.566;6.994;2023-02-21T07:55:06;101427.28;;;6.15;100.00
48553;BME280;34335;51.566;6.994;2023-02-21T07:57:31;101423.94;;;6.19;100.00
48553;BME280;34335;51.566;6.994;2023-02-21T07:59:57;101424.13;;;6.25;100.00
48553;BME280;34335;51.566;6.994;2023-02-21T08:02:22;101429.78;;;6.13;100.00
48553;BME280;34335;51.566;6.994;2023-02-21T08:04:51;101419.44;;;6.13;100.00
48553;BME280;34335;51.566;6.994;2023-02-21T08:07:16;101419.38;;;6.10;100.00
48553;BME280;34335;51.566;6.994;2023-02-21T08:09:42;101426.22;;;6.08;100.00
48553;BME280;34335;51.566;6.994;2023-02-21T08:12:07;101424.28;;;6.01;100.00
48553;BME280;34335;51.566;6.994;2023-02-21T08:14:33;101424.34;;;6.04;100.00
48553;BME280;34335;51.566;6.994;2023-02-21T08:16:58;101425.16;;;6.01;100.00
48553;BME280;34335;51.566;6.994;2023-02-21T08:19:23;101429.63;;;6.07;100.00
48553;BME280;34335;51.566;6.994;2023-02-21T08:21:49;101435.50;;;6.03;100.00
48553;BME280;34335;51.566;6.994;2023-02-21T08:24:15;101443.19;;;6.00;100.00
48553;BME280;34335;51.566;6.994;2023-02-21T08:26:42;101441.41;;;5.99;100.00
48553;BME280;34335;51.566;6.994;2023-02-21T08:29:10;101439.66;;;5.98;100.00
48553;BME280;34335;51.566;6.994;2023-02-21T08:31:37;101445.84;;;6.03;100.00
48553;BME280;34335;51.566;6.994;2023-02-21T08:34:04;101447.94;;;5.87;100.00
48553;BME280;34335;51.566;6.994;2023-02-21T08:36:37;101444.63;;;5.91;100.00
48553;BME280;34335;51.566;6.994;2023-02-21T08:39:04;101437.88;;;5.97;100.00
48553;BME280;34335;51.566;6.994;2023-02-21T08:41:41;101437.78;;;5.93;100.00
48553;BME280;34335;51.566;6.994;2023-02-21T08:44:08;101437.03;;;5.96;100.00
48553;BME280;34335;51.566;6.994;2023-02-21T08:46:34;101432.72;;;5.97;100.00
48553;BME280;34335;51.566;6.994;2023-02-21T08:49:00;101422.53;;;6.00;100.00
48553;BME280;34335;51.566;6.994;2023-02-21T08:51:28;101422.38;;;5.95;100.00
48553;BME280;34335;51.566;6.994;2023-02-21T08:53:54;101420.13;;;6.06;100.00
48553;BME280;34335;51.566;6.994;2023-02-21T08:56:20;101414.78;;;6.00;100.00
48553;BME280;34335;51.566;6.994;2023-02-21T08:58:46;101409.50;;;5.97;100.00
48553;BME280;34335;51.566;6.994;2023-02-21T09:01:12;101416.59;;;6.04;100.00
48553;BME280;34335;51.566;6.994;2023-02-21T09:03:37;101408.88;;;6.04;100.00
48553;BME280;34335;51.566;6.994;2023-02-21T09:06:02;101416.53;;;6.01;100.00
48553;BME280;34335;51.566;6.994;2023-02-21T09:08:28;101419.19;;;6.04;100.00
48553;BME280;34335;51.566;6.994;2023-02-21T09:10:58;101415.69;;;6.02;100.00
48553;BME280;34335;51.566;6.994;2023-02-21T09:13:28;101420.91;;;6.03;100.00
48553;BME280;34335;51.566;6.994;2023-02-21T09:15:58;101414.13;;;6.07;100.00
48553;BME280;34335;51.566;6.994;2023-02-21T09:18:24;101414.22;;;6.10;100.00
48553;BME280;34335;51.566;6.994;2023-02-21T09:20:50;101410.78;;;6.11;100.00
48553;BME280;34335;51.566;6.994;2023-02-21T09:23:16;101420.25;;;6.11;100.00
48553;BME280;34335;51.566;6.994;2023-02-21T09:25:43;101409.88;;;6.09;100.00
48553;BME280;34335;51.566;6.994;2023-02-21T09:28:08;101413.44;;;6.13;100.00
48553;BME280;34335;51.566;6.994;2023-02-21T09:30:33;101412.47;;;6.09;100.00
48553;BME280;34335;51.566;6.994;2023-02-21T09:32:59;101415.09;;;6.11;100.00
48553;BME280;34335;51.566;6.994;2023-02-21T09:35:24;101413.47;;;6.14;100.00
48553;BME280;34335;51.566;6.994;2023-02-21T09:37:49;101407.63;;;6.21;100.00
48553;BME280;34335;51.566;6.994;2023-02-21T09:43:23;101409.31;;;6.19;100.00
48553;BME280;34335;51.566;6.994;2023-02-21T09:45:53;101413.47;;;6.14;100.00
48553;BME280;34335;51.566;6.994;2023-02-21T09:48:22;101416.75;;;6.08;100.00
48553;BME280;34335;51.566;6.994;2023-02-21T09:50:52;101413.22;;;6.06;100.00
48553;BME280;34335;51.566;6.994;2023-02-21T09:53:22;101410.75;;;6.10;100.00
48553;BME280;34335;51.566;6.994;2023-02-21T09:55:49;101413.19;;;6.05;100.00
48553;BME280;34335;51.566;6.994;2023-02-21T09:58:17;101415.94;;;6.11;100.00
48553;BME280;34335;51.566;6.994;2023-02-21T10:00:45;101408.94;;;6.05;100.00
48553;BME280;34335;51.566;6.994;2023-02-21T10:04:00;101410.78;;;6.11;100.00
48553;BME280;34335;51.566;6.994;2023-02-21T10:11:16;101414.34;;;6.15;100.00
48553;BME280;34335;51.566;6.994;2023-02-21T10:14:29;101411.91;;;6.19;100.00
48553;BME280;34335;51.566;6.994;2023-02-21T10:19:35;101416.69;;;6.37;100.00
48553;BME280;34335;51.566;6.994;2023-02-21T10:22:22;101420.22;;;6.41;100.00
48553;BME280;34335;51.566;6.994;2023-02-21T10:24:49;101410.56;;;6.34;100.00
48553;BME280;34335;51.566;6.994;2023-02-21T10:27:21;101415.88;;;6.40;100.00
48553;BME280;34335;51.566;6.994;2023-02-21T10:30:03;101419.22;;;6.34;100.00
48553;BME280;34335;51.566;6.994;2023-02-21T10:32:30;101418.16;;;6.28;100.00
48553;BME280;34335;51.566;6.994;2023-02-21T10:34:57;101419.94;;;6.30;100.00
48553;BME280;34335;51.566;6.994;2023-02-21T10:42:48;101424.53;;;6.41;100.00
48553;BME280;34335;51.566;6.994;2023-02-21T10:45:17;101421.69;;;6.31;100.00
48553;BME280;34335;51.566;6.994;2023-02-21T10:47:50;101422.63;;;6.33;100.00
48553;BME280;34335;51.566;6.994;2023-02-21T10:50:47;101427.09;;;6.39;100.00
48553;BME280;34335;51.566;6.994;2023-02-21T10:53:29;101430.41;;;6.35;100.00
48553;BME280;34335;51.566;6.994;2023-02-21T10:56:22;101425.41;;;6.41;100.00
48553;BME280;34335;51.566;6.994;2023-02-21T10:58:58;101420.44;;;6.49;100.00
48553;BME280;34335;51.566;6.994;2023-02-21T11:04:21;101427.34;;;6.48;100.00
48553;BME280;34335;51.566;6.994;2023-02-21T11:06:50;101417.25;;;6.58;100.00
48553;BME280;34335;51.566;6.994;2023-02-21T11:12:09;101417.31;;;6.61;100.00
48553;BME280;34335;51.566;6.994;2023-02-21T11:15:03;101418.81;;;6.52;100.00
48553;BME280;34335;51.566;6.994;2023-02-21T11:17:31;101412.97;;;6.60;100.00
48553;BME280;34335;51.566;6.994;2023-02-21T11:20:25;101409.63;;;6.62;100.00
48553;BME280;34335;51.566;6.994;2023-02-21T11:22:50;101409.03;;;6.73;100.00
48553;BME280;34335;51.566;6.994;2023-02-21T11:25:27;101403.88;;;6.74;100.00
48553;BME280;34335;51.566;6.994;2023-02-21T11:28:18;101408.25;;;6.77;100.00
48553;BME280;34335;51.566;6.994;2023-02-21T11:31:07;101404.03;;;6.80;100.00
48553;BME280;34335;51.566;6.994;2023-02-21T11:33:39;101401.28;;;6.73;100.00
48553;BME280;34335;51.566;6.994;2023-02-21T11:36:17;101408.13;;;6.72;100.00
48553;BME280;34335;51.566;6.994;2023-02-21T11:38:59;101404.00;;;6.79;100.00
48553;BME280;34335;51.566;6.994;2023-02-21T11:41:38;101401.44;;;6.79;100.00
48553;BME280;34335;51.566;6.994;2023-02-21T11:44:33;101397.28;;;6.85;100.00
48553;BME280;34335;51.566;6.994;2023-02-21T11:50:03;101396.34;;;6.82;100.00
48553;BME280;34335;51.566;6.994;2023-02-21T11:52:43;101395.69;;;6.91;100.00
48553;BME280;34335;51.566;6.994;2023-02-21T11:55:21;101392.28;;;6.93;100.00
48553;BME280;34335;51.566;6.994;2023-02-21T12:00:39;101388.84;;;6.93;100.00
48553;BME280;34335;51.566;6.994;2023-02-21T12:06:00;101382.00;;;6.95;100.00
48553;BME280;34335;51.566;6.994;2023-02-21T12:19:43;101361.09;;;7.22;100.00
48553;BME280;34335;51.566;6.994;2023-02-21T12:25:10;101359.38;;;7.21;100.00
48553;BME280;34335;51.566;6.994;2023-02-21T12:33:56;101344.09;;;7.33;100.00
48553;BME280;34335;51.566;6.994;2023-02-21T12:36:33;101341.91;;;7.51;100.00
48553;BME280;34335;51.566;6.994;2023-02-21T12:44:23;101335.28;;;7.65;100.00
48553;BME280;34335;51.566;6.994;2023-02-21T12:47:00;101333.00;;;7.79;100.00
48553;BME280;34335;51.566;6.994;2023-02-21T12:55:06;101320.66;;;7.66;100.00
48553;BME280;34335;51.566;6.994;2023-02-21T12:58:14;101325.13;;;7.74;100.00
48553;BME280;34335;51.566;6.994;2023-02-21T13:00:54;101320.81;;;7.73;100.00
48553;BME280;34335;51.566;6.994;2023-02-21T13:06:15;101313.03;;;7.73;100.00
48553;BME280;34335;51.566;6.994;2023-02-21T13:11:26;101304.63;;;7.85;100.00
48553;BME280;34335;51.566;6.994;2023-02-21T13:13:54;101292.63;;;7.90;100.00
48553;BME280;34335;51.566;6.994;2023-02-21T13:16:20;101296.97;;;7.90;100.00
48553;BME280;34335;51.566;6.994;2023-02-21T13:18:54;101297.69;;;7.83;100.00
48553;BME280;34335;51.566;6.994;2023-02-21T13:21:42;101301.13;;;7.83;100.00
48553;BME280;34335;51.566;6.994;2023-02-21T13:24:51;101298.63;;;7.86;100.00
48553;BME280;34335;51.566;6.994;2023-02-21T13:30:12;101280.34;;;7.78;100.00
48553;BME280;34335;51.566;6.994;2023-02-21T13:32:39;101273.66;;;7.90;100.00
48553;BME280;34335;51.566;6.994;2023-02-21T13:35:19;101272.94;;;7.99;100.00
48553;BME280;34335;51.566;6.994;2023-02-21T13:37:47;101278.25;;;8.05;100.00
48553;BME280;34335;51.566;6.994;2023-02-21T13:40:32;101268.91;;;8.13;100.00
48553;BME280;34335;51.566;6.994;2023-02-21T13:43:26;101275.91;;;8.19;100.00
48553;BME280;34335;51.566;6.994;2023-02-21T13:45:54;101275.63;;;8.03;100.00
48553;BME280;34335;51.566;6.994;2023-02-21T13:48:24;101273.06;;;8.05;100.00
48553;BME280;34335;51.566;6.994;2023-02-21T13:50:59;101271.66;;;8.24;100.00
48553;BME280;34335;51.566;6.994;2023-02-21T13:53:26;101265.44;;;8.13;100.00
48553;BME280;34335;51.566;6.994;2023-02-21T13:56:13;101259.88;;;7.91;100.00
48553;BME280;34335;51.566;6.994;2023-02-21T13:58:43;101270.88;;;7.79;100.00
48553;BME280;34335;51.566;6.994;2023-02-21T14:01:15;101258.03;;;7.87;100.00
48553;BME280;34335;51.566;6.994;2023-02-21T14:03:41;101263.47;;;8.01;100.00
48553;BME280;34335;51.566;6.994;2023-02-21T14:08:46;101264.06;;;7.86;100.00
48553;BME280;34335;51.566;6.994;2023-02-21T14:11:18;101264.47;;;8.06;100.00
48553;BME280;34335;51.566;6.994;2023-02-21T14:13:48;101260.97;;;8.05;100.00
48553;BME280;34335;51.566;6.994;2023-02-21T14:19:25;101255.03;;;8.11;100.00
48553;BME280;34335;51.566;6.994;2023-02-21T14:25:07;101253.34;;;8.11;100.00
48553;BME280;34335;51.566;6.994;2023-02-21T14:27:40;101253.16;;;8.02;100.00
48553;BME280;34335;51.566;6.994;2023-02-21T14:32:41;101245.50;;;8.10;100.00
48553;BME280;34335;51.566;6.994;2023-02-21T14:38:01;101244.41;;;7.95;100.00
48553;BME280;34335;51.566;6.994;2023-02-21T14:43:16;101244.25;;;7.88;100.00
48553;BME280;34335;51.566;6.994;2023-02-21T14:46:25;101240.66;;;7.79;100.00
48553;BME280;34335;51.566;6.994;2023-02-21T14:54:49;101238.13;;;7.83;100.00
48553;BME280;34335;51.566;6.994;2023-02-21T14:57:42;101240.72;;;7.83;100.00
48553;BME280;34335;51.566;6.994;2023-02-21T15:02:57;101230.47;;;7.90;100.00
48553;BME280;34335;51.566;6.994;2023-02-21T15:05:30;101233.22;;;7.98;100.00
48553;BME280;34335;51.566;6.994;2023-02-21T15:10:46;101234.69;;;7.84;100.00
48553;BME280;34335;51.566;6.994;2023-02-21T15:16:00;101231.03;;;7.72;100.00
48553;BME280;34335;51.566;6.994;2023-02-21T15:18:32;101233.81;;;7.83;100.00
48553;BME280;34335;51.566;6.994;2023-02-21T15:23:41;101225.47;;;7.98;100.00
48553;BME280;34335;51.566;6.994;2023-02-21T15:28:42;101233.97;;;7.91;100.00
48553;BME280;34335;51.566;6.994;2023-02-21T15:31:09;101224.63;;;7.99;100.00
48553;BME280;34335;51.566;6.994;2023-02-21T15:33:39;101225.53;;;8.01;100.00
48553;BME280;34335;51.566;6.994;2023-02-21T15:38:42;101219.91;;;8.25;100.00
48553;BME280;34335;51.566;6.994;2023-02-21T15:41:39;101219.16;;;8.33;100.00
48553;BME280;34335;51.566;6.994;2023-02-21T15:44:15;101225.19;;;8.33;100.00
48553;BME280;34335;51.566;6.994;2023-02-21T15:46:57;101213.81;;;8.25;100.00
48553;BME280;34335;51.566;6.994;2023-02-21T15:49:29;101215.56;;;8.26;100.00
48553;BME280;34335;51.566;6.994;2023-02-21T15:51:55;101212.28;;;8.36;100.00
48553;BME280;34335;51.566;6.994;2023-02-21T15:54:25;101207.34;;;8.49;100.00
48553;BME280;34335;51.566;6.994;2023-02-21T15:59:36;101207.16;;;8.39;100.00
48553;BME280;34335;51.566;6.994;2023-02-21T16:04:39;101205.94;;;8.17;100.00
48553;BME280;34335;51.566;6.994;2023-02-21T16:07:12;101211.31;;;8.30;100.00
48553;BME280;34335;51.566;6.994;2023-02-21T16:09:43;101203.66;;;8.36;100.00
48553;BME280;34335;51.566;6.994;2023-02-21T16:14:41;101204.50;;;8.35;100.00
48553;BME280;34335;51.566;6.994;2023-02-21T16:17:30;101206.25;;;8.36;100.00
48553;BME280;34335;51.566;6.994;2023-02-21T16:20:08;101200.31;;;8.45;100.00
48553;BME280;34335;51.566;6.994;2023-02-21T16:22:38;101207.16;;;8.39;100.00
48553;BME280;34335;51.566;6.994;2023-02-21T16:27:40;101202.09;;;8.47;100.00
48553;BME280;34335;51.566;6.994;2023-02-21T16:30:10;101198.56;;;8.43;100.00
48553;BME280;34335;51.566;6.994;2023-02-21T16:32:37;101199.41;;;8.41;100.00
48553;BME280;34335;51.566;6.994;2023-02-21T16:35:04;101194.41;;;8.52;100.00
48553;BME280;34335;51.566;6.994;2023-02-21T16:37:29;101199.13;;;8.24;100.00
48553;BME280;34335;51.566;6.994;2023-02-21T16:39:56;101200.16;;;8.35;100.00
48553;BME280;34335;51.566;6.994;2023-02-21T16:42:21;101198.53;;;8.40;100.00
48553;BME280;34335;51.566;6.994;2023-02-21T16:44:46;101195.88;;;8.37;100.00
48553;BME280;34335;51.566;6.994;2023-02-21T16:47:13;101193.38;;;8.43;100.00
48553;BME280;34335;51.566;6.994;2023-02-21T16:49:40;101200.16;;;8.35;100.00
48553;BME280;34335;51.566;6.994;2023-02-21T16:52:05;101198.09;;;8.13;100.00
48553;BME280;34335;51.566;6.994;2023-02-21T16:54:30;101198.34;;;8.28;100.00
48553;BME280;34335;51.566;6.994;2023-02-21T16:56:56;101198.47;;;8.37;100.00
48553;BME280;34335;51.566;6.994;2023-02-21T16:59:23;101200.78;;;8.19;100.00
48553;BME280;34335;51.566;6.994;2023-02-21T17:01:49;101194.91;;;8.29;100.00
48553;BME280;34335;51.566;6.994;2023-02-21T17:04:17;101195.75;;;8.28;100.00
48553;BME280;34335;51.566;6.994;2023-02-21T17:06:46;101200.91;;;8.26;100.00
48553;BME280;34335;51.566;6.994;2023-02-21T17:09:21;101200.19;;;8.37;100.00
48553;BME280;34335;51.566;6.994;2023-02-21T17:11:46;101203.66;;;8.37;100.00
48553;BME280;34335;51.566;6.994;2023-02-21T17:14:12;101195.81;;;8.31;100.00
48553;BME280;34335;51.566;6.994;2023-02-21T17:16:37;101199.31;;;8.35;100.00
48553;BME280;34335;51.566;6.994;2023-02-21T17:19:03;101206.19;;;8.34;100.00
48553;BME280;34335;51.566;6.994;2023-02-21T17:21:30;101201.97;;;8.39;100.00
48553;BME280;34335;51.566;6.994;2023-02-21T17:23:55;101204.56;;;8.39;100.00
48553;BME280;34335;51.566;6.994;2023-02-21T17:26:21;101204.34;;;8.27;100.00
48553;BME280;34335;51.566;6.994;2023-02-21T17:28:47;101204.34;;;8.27;100.00
48553;BME280;34335;51.566;6.994;2023-02-21T17:31:14;101204.34;;;8.27;100.00
48553;BME280;34335;51.566;6.994;2023-02-21T17:33:42;101194.75;;;8.20;100.00
48553;BME280;34335;51.566;6.994;2023-02-21T17:36:09;101199.00;;;8.16;100.00
48553;BME280;34335;51.566;6.994;2023-02-21T17:38:39;101210.13;;;8.10;100.00
48553;BME280;34335;51.566;6.994;2023-02-21T17:41:04;101203.47;;;8.25;100.00
48553;BME280;34335;51.566;6.994;2023-02-21T17:43:30;101203.28;;;8.13;100.00
48553;BME280;34335;51.566;6.994;2023-02-21T17:45:55;101203.44;;;8.22;100.00
48553;BME280;34335;51.566;6.994;2023-02-21T17:48:20;101207.66;;;8.18;100.00
48553;BME280;34335;51.566;6.994;2023-02-21T17:50:47;101205.50;;;7.94;100.00